Time;durP1;ratioP1;P1;durP2;ratioP2;P2;SDS_P1;SDS_P2;PMS_P1;PMS_P2;Temp;Humidity;BMP_temperature;BMP_pressure;BME280_temperature;BME280_humidity;BME280_pressure;Samples;Min_cycle;Max_cycle;Signal;HPM_P1;HPM_P2
2022/04/29 00:00:14;;;;;;;9.17;6.10;;;;;;;14.78;51.20;101674.97;5018897;28;20587;-66
2022/04/29 00:02:42;;;;;;;10.67;6.40;;;;;;;14.76;51.47;101666.28;5022289;28;20246;-65
2022/04/29 00:05:11;;;;;;;8.27;6.07;;;;;;;14.82;51.46;101655.00;5020904;28;20212;-65
2022/04/29 00:07:39;;;;;;;10.60;6.73;;;;;;;14.81;51.72;101658.66;5023106;28;20213;-67
2022/04/29 00:10:09;;;;;;;10.33;6.77;;;;;;;14.77;51.83;101662.63;5021726;28;20216;-66
2022/04/29 00:12:37;;;;;;;10.67;6.67;;;;;;;14.75;52.12;101660.09;5023590;28;20209;-66
2022/04/29 00:15:06;;;;;;;8.30;6.63;;;;;;;14.73;52.20;101655.88;5024479;28;20653;-65
2022/04/29 00:17:38;;;;;;;10.50;6.77;;;;;;;14.72;52.46;101651.53;5023380;28;20211;-66
2022/04/29 00:20:07;;;;;;;10.03;6.50;;;;;;;14.66;53.01;101656.47;5023131;28;20215;-67
2022/04/29 00:22:35;;;;;;;9.87;7.00;;;;;;;14.63;53.06;101659.41;5021733;28;20213;-67
2022/04/29 00:25:03;;;;;;;8.33;6.53;;;;;;;14.67;52.98;101657.31;5026632;28;20869;-67
2022/04/29 00:27:31;;;;;;;13.37;7.17;;;;;;;14.66;52.90;101659.16;5024851;28;20215;-66
2022/04/29 00:29:59;;;;;;;13.33;7.33;;;;;;;14.69;53.02;101656.16;5024506;28;20216;-66
2022/04/29 00:32:26;;;;;;;9.97;7.07;;;;;;;14.68;53.06;101649.16;5023036;28;20216;-66
2022/04/29 00:34:58;;;;;;;11.87;7.63;;;;;;;14.68;53.31;101656.34;5031477;28;20200;-66
2022/04/29 00:37:27;;;;;;;12.07;7.77;;;;;;;14.67;53.20;101655.50;5025627;28;20236;-67
2022/04/29 00:39:59;;;;;;;11.37;7.30;;;;;;;14.66;53.20;101645.78;5020325;28;20304;-67
2022/04/29 00:42:28;;;;;;;9.70;6.93;;;;;;;14.64;53.24;101642.41;5027251;28;20213;-65
2022/04/29 00:44:56;;;;;;;12.20;7.60;;;;;;;14.60;53.36;101646.34;5023427;28;20231;-65
2022/04/29 00:47:24;;;;;;;12.63;7.00;;;;;;;14.63;53.52;101651.41;5027025;28;20239;-65
2022/04/29 00:49:53;;;;;;;11.67;7.63;;;;;;;14.65;53.72;101644.09;5023100;28;20208;-65
2022/04/29 00:52:25;;;;;;;12.27;8.03;;;;;;;14.61;53.73;101632.03;5024950;28;20229;-65
2022/04/29 00:55:00;;;;;;;13.50;8.17;;;;;;;14.51;54.35;101636.56;5024667;28;20648;-66
2022/04/29 00:57:35;;;;;;;13.10;8.23;;;;;;;14.46;54.62;101633.50;5022896;28;20270;-65
2022/04/29 01:00:08;;;;;;;12.27;7.93;;;;;;;14.47;54.70;101632.50;5022659;28;20298;-65
2022/04/29 01:02:39;;;;;;;13.87;7.87;;;;;;;14.47;54.87;101635.19;5020356;28;20244;-66
2022/04/29 01:05:09;;;;;;;13.60;8.10;;;;;;;14.44;54.75;101624.78;5025106;28;20260;-66
2022/04/29 01:07:40;;;;;;;12.47;8.57;;;;;;;14.44;55.09;101629.28;5022811;28;20642;-66
2022/04/29 01:10:11;;;;;;;12.50;8.63;;;;;;;14.45;55.20;101626.47;5020194;28;20210;-66
2022/04/29 01:12:42;;;;;;;16.10;8.40;;;;;;;14.47;55.17;101623.66;5021020;28;20850;-66
2022/04/29 01:15:13;;;;;;;11.70;8.30;;;;;;;14.47;55.48;101629.84;5023103;28;20255;-66
2022/04/29 01:17:44;;;;;;;12.07;8.17;;;;;;;14.47;55.21;101629.84;5024816;28;21003;-66
2022/04/29 01:20:14;;;;;;;12.63;8.30;;;;;;;14.45;55.28;101626.47;5019253;28;20200;-65
2022/04/29 01:22:45;;;;;;;16.60;9.20;;;;;;;14.44;55.65;101626.59;5024802;28;20227;-66
2022/04/29 01:25:13;;;;;;;12.93;9.50;;;;;;;14.38;55.89;101622.66;5022578;28;20236;-66
2022/04/29 01:27:44;;;;;;;12.43;8.50;;;;;;;14.41;55.55;101618.91;5023857;28;20625;-66
2022/04/29 01:30:15;;;;;;;12.93;8.53;;;;;;;14.42;55.58;101624.09;5020820;28;20232;-66
2022/04/29 01:32:44;;;;;;;13.97;9.00;;;;;;;14.40;56.01;101614.56;5021240;28;20212;-64
2022/04/29 01:35:14;;;;;;;15.30;9.07;;;;;;;14.35;55.96;101614.09;5021232;28;20204;-65
2022/04/29 01:37:43;;;;;;;12.53;8.40;;;;;;;14.35;56.08;101614.94;5023220;28;20745;-66
2022/04/29 01:40:13;;;;;;;14.13;9.73;;;;;;;14.34;55.99;101607.91;5022831;28;20212;-66
2022/04/29 01:42:42;;;;;;;16.80;8.77;;;;;;;14.32;56.38;101604.59;5019857;28;20296;-66
2022/04/29 01:45:12;;;;;;;12.70;8.60;;;;;;;14.28;56.57;101598.69;5023997;28;20311;-64
2022/04/29 01:47:48;;;;;;;14.20;8.33;;;;;;;14.27;56.57;101599.66;5023732;28;20236;-65
2022/04/29 01:50:16;;;;;;;14.40;8.67;;;;;;;14.26;56.89;101595.31;5020151;28;20220;-65
2022/04/29 01:52:43;;;;;;;13.20;9.17;;;;;;;14.26;56.71;101597.13;5026238;28;20247;-67
2022/04/29 01:55:13;;;;;;;13.63;9.17;;;;;;;14.22;56.84;101593.09;5022907;28;20576;-66
2022/04/29 01:57:40;;;;;;;17.43;9.73;;;;;;;14.21;56.90;101599.41;5024177;28;20207;-66
2022/04/29 02:00:10;;;;;;;15.83;8.63;;;;;;;14.23;56.79;101595.63;5029242;28;20979;-67
2022/04/29 02:02:38;;;;;;;12.37;8.67;;;;;;;14.21;56.71;101594.06;5027667;28;20212;-64
2022/04/29 02:05:09;;;;;;;15.50;9.20;;;;;;;14.18;56.66;101591.69;5026613;28;20231;-66
2022/04/29 02:07:37;;;;;;;13.53;9.03;;;;;;;14.14;56.91;101601.81;5024897;28;20592;-65
2022/04/29 02:10:05;;;;;;;13.47;8.70;;;;;;;14.10;56.91;101597.75;5027192;28;20218;-66
2022/04/29 02:12:35;;;;;;;15.97;9.50;;;;;;;14.09;57.18;101598.72;5028246;28;20201;-65
2022/04/29 02:15:04;;;;;;;11.93;8.93;;;;;;;14.08;57.04;101596.19;5027018;28;20214;-65
2022/04/29 02:17:31;;;;;;;13.07;9.00;;;;;;;14.09;56.99;101587.22;5025723;28;20213;-65
2022/04/29 02:19:59;;;;;;;17.17;10.53;;;;;;;14.12;56.87;101598.44;5025672;28;20228;-66
2022/04/29 02:22:27;;;;;;;15.27;9.07;;;;;;;14.13;56.61;101594.78;5026091;28;20200;-65
2022/04/29 02:24:54;;;;;;;15.73;8.80;;;;;;;14.10;56.90;101595.06;5025435;28;20232;-66
2022/04/29 02:27:22;;;;;;;12.27;9.23;;;;;;;14.03;57.23;101598.47;5024775;28;20286;-65
2022/04/29 02:29:51;;;;;;;14.10;9.87;;;;;;;14.03;56.92;101591.31;5024194;28;20219;-66
2022/04/29 02:32:19;;;;;;;11.43;8.63;;;;;;;13.98;57.34;101592.72;5021531;28;20215;-65
2022/04/29 02:34:46;;;;;;;16.90;8.87;;;;;;;14.01;56.97;101587.94;5029930;28;20556;-66
2022/04/29 02:37:15;;;;;;;14.70;9.67;;;;;;;13.95;57.38;101585.84;5023412;28;20218;-66
2022/04/29 02:39:43;;;;;;;18.40;10.77;;;;;;;13.95;57.10;101577.84;5026393;28;20236;-64
2022/04/29 02:42:11;;;;;;;14.63;9.70;;;;;;;13.99;57.10;101586.38;5024461;28;20588;-66
2022/04/29 02:44:39;;;;;;;12.73;9.20;;;;;;;14.01;56.91;101579.09;5026492;28;20330;-66
2022/04/29 02:47:08;;;;;;;15.13;9.20;;;;;;;14.02;56.99;101580.78;5026135;28;20246;-67
2022/04/29 02:49:36;;;;;;;12.87;8.50;;;;;;;13.95;57.26;101583.19;5024037;28;20235;-66
2022/04/29 02:52:05;;;;;;;14.57;9.00;;;;;;;13.93;57.26;101580.66;5027479;28;20568;-65
2022/04/29 02:54:33;;;;;;;16.43;10.20;;;;;;;13.93;57.42;101577.13;5027151;28;20208;-64
2022/04/29 02:57:00;;;;;;;12.80;9.87;;;;;;;13.96;57.33;101582.19;5023286;28;20240;-65
2022/04/29 02:59:28;;;;;;;17.30;10.23;;;;;;;13.96;57.54;101582.19;5025036;28;20243;-65
2022/04/29 03:01:56;;;;;;;17.70;11.00;;;;;;;14.00;57.15;101588.06;5025771;28;20641;-66
2022/04/29 03:04:25;;;;;;;15.57;9.57;;;;;;;13.96;57.35;101581.34;5026193;28;20232;-64
2022/04/29 03:06:53;;;;;;;15.27;9.30;;;;;;;13.94;57.24;101589.50;5025985;28;20215;-65
2022/04/29 03:09:21;;;;;;;15.97;10.03;;;;;;;13.87;57.66;101591.91;5024518;28;20306;-66
2022/04/29 03:11:49;;;;;;;16.73;9.67;;;;;;;13.81;57.60;101594.25;5025408;28;20658;-65
2022/04/29 03:14:17;;;;;;;14.70;9.63;;;;;;;13.76;57.70;101578.72;5024247;28;20215;-65
2022/04/29 03:16:50;;;;;;;16.10;9.27;;;;;;;13.77;57.79;101585.72;5026414;28;20660;-65
2022/04/29 03:19:18;;;;;;;15.40;10.97;;;;;;;13.80;57.54;101585.47;5024596;28;20732;-65
2022/04/29 03:21:47;;;;;;;16.63;10.27;;;;;;;13.78;57.66;101583.91;5022902;28;20572;-66
2022/04/29 03:24:15;;;;;;;14.13;9.50;;;;;;;13.78;57.63;101582.09;5026831;28;20228;-66
2022/04/29 03:26:42;;;;;;;14.13;9.27;;;;;;;13.77;57.66;101582.22;5022711;28;20299;-65
2022/04/29 03:29:10;;;;;;;18.27;10.23;;;;;;;13.73;57.74;101578.13;5022949;28;20225;-66
2022/04/29 03:31:38;;;;;;;15.00;10.57;;;;;;;13.70;57.86;101576.63;5026922;28;20214;-65
2022/04/29 03:34:06;;;;;;;14.50;9.47;;;;;;;13.72;57.95;101584.47;5026897;28;20250;-65
2022/04/29 03:36:33;;;;;;;18.77;9.93;;;;;;;13.71;58.06;101580.13;5030002;28;20205;-66
2022/04/29 03:39:03;;;;;;;17.43;9.73;;;;;;;13.73;57.71;101576.31;5027956;28;20303;-66
2022/04/29 03:41:31;;;;;;;17.90;9.87;;;;;;;13.75;57.54;101587.69;5026225;28;20232;-65
2022/04/29 03:43:58;;;;;;;15.13;9.03;;;;;;;13.70;57.76;101587.28;5029584;28;20243;-66
2022/04/29 03:46:26;;;;;;;15.23;9.13;;;;;;;13.67;57.83;101581.38;5028411;28;20232;-66
2022/04/29 03:51:44;;;;;;;13.83;10.07;;;;;;;13.61;57.95;101577.47;5027985;28;20306;-65
2022/04/29 03:54:20;;;;;;;16.73;10.30;;;;;;;13.60;58.19;101581.09;5027643;28;21137;-65
2022/04/29 03:56:48;;;;;;;13.70;10.13;;;;;;;13.55;58.14;101576.19;5027416;28;20200;-65
2022/04/29 03:59:16;;;;;;;16.63;9.97;;;;;;;13.56;58.29;101579.69;5025757;28;20219;-65
2022/04/29 04:01:45;;;;;;;14.53;9.23;;;;;;;13.54;58.36;101577.16;5029008;28;20226;-65
2022/04/29 04:04:14;;;;;;;17.87;10.00;;;;;;;13.52;58.13;101578.31;5028501;28;20493;-65
2022/04/29 04:06:50;;;;;;;15.43;9.53;;;;;;;13.52;58.23;101579.16;5025812;28;20233;-66
2022/04/29 04:09:22;;;;;;;14.30;9.60;;;;;;;13.51;58.33;101573.94;5026263;28;20212;-65
2022/04/29 04:11:50;;;;;;;15.00;9.00;;;;;;;13.48;58.40;101571.56;5030056;28;20218;-66
2022/04/29 04:14:18;;;;;;;17.60;10.03;;;;;;;13.49;58.40;101578.56;5029756;28;20215;-66
2022/04/29 04:16:46;;;;;;;14.33;10.40;;;;;;;13.48;58.43;101577.72;5025737;28;20291;-65
2022/04/29 04:19:14;;;;;;;18.17;10.23;;;;;;;13.47;58.37;101578.72;5033070;28;20211;-66
2022/04/29 04:21:42;;;;;;;15.60;10.47;;;;;;;13.37;58.66;101579.72;5035573;28;20298;-66
2022/04/29 04:24:10;;;;;;;17.20;9.80;;;;;;;13.37;58.62;101583.19;5032494;28;20644;-65
2022/04/29 04:26:40;;;;;;;14.00;10.00;;;;;;;13.37;58.68;101580.53;5029393;28;20221;-65
2022/04/29 04:29:07;;;;;;;13.57;9.03;;;;;;;13.39;58.63;101588.38;5028843;28;20298;-66
2022/04/29 04:31:35;;;;;;;13.63;10.13;;;;;;;13.36;58.70;101586.88;5035727;28;20249;-65
2022/04/29 04:34:49;;;;;;;15.93;9.17;;;;;;;13.38;59.00;101589.38;5024117;28;20747;-66
2022/04/29 04:36:53;;;;;;;18.70;10.40;;;;;;;13.34;59.00;101590.63;5032417;28;20583;-65
2022/04/29 04:39:21;;;;;;;14.47;9.90;;;;;;;13.37;58.74;101587.69;5037184;28;20656;-65
2022/04/29 04:41:51;;;;;;;17.17;10.50;;;;;;;13.37;58.80;101593.03;5038689;28;20211;-65
2022/04/29 04:44:19;;;;;;;16.60;9.03;;;;;;;13.35;58.60;101595.00;5029026;28;20718;-66
2022/04/29 04:46:47;;;;;;;16.43;9.73;;;;;;;13.37;58.77;101598.38;5024506;28;20227;-66
2022/04/29 04:49:15;;;;;;;14.30;9.57;;;;;;;13.33;58.71;101602.28;5029150;28;20304;-66
2022/04/29 04:51:43;;;;;;;17.63;8.83;;;;;;;13.37;58.38;101601.03;5025659;28;20212;-67
2022/04/29 04:54:11;;;;;;;16.37;9.90;;;;;;;13.40;58.21;101600.72;5030388;28;20297;-67
2022/04/29 04:56:38;;;;;;;15.00;9.67;;;;;;;13.41;58.44;101602.41;5029057;28;20205;-65
2022/04/29 04:59:07;;;;;;;12.43;9.70;;;;;;;13.40;58.18;101606.91;5028728;28;20222;-66
2022/04/29 05:01:35;;;;;;;16.83;10.23;;;;;;;13.44;58.36;101610.16;5026578;28;20294;-66
2022/04/29 05:04:03;;;;;;;16.37;9.67;;;;;;;13.45;58.35;101606.50;5026329;28;20302;-64
2022/04/29 05:06:31;;;;;;;14.93;9.97;;;;;;;13.48;58.40;101603.53;5034712;28;20230;-67
2022/04/29 05:08:59;;;;;;;14.97;10.33;;;;;;;13.51;58.38;101608.59;5026304;28;20261;-66
2022/04/29 05:11:26;;;;;;;15.07;9.60;;;;;;;13.50;58.55;101612.25;5028336;28;20298;-66
2022/04/29 05:14:15;;;;;;;16.87;10.30;;;;;;;13.49;58.76;101615.88;5024742;28;20209;-66
2022/04/29 05:16:43;;;;;;;18.97;10.83;;;;;;;13.48;58.72;101620.38;5024542;28;20206;-66
2022/04/29 05:19:11;;;;;;;16.93;10.57;;;;;;;13.51;58.46;101617.44;5022590;28;20240;-66
2022/04/29 05:21:39;;;;;;;14.00;9.50;;;;;;;13.60;58.39;101613.09;5025446;28;20216;-66
2022/04/29 05:24:07;;;;;;;17.50;10.13;;;;;;;13.61;58.58;101620.09;5021965;28;20214;-66
2022/04/29 05:26:35;;;;;;;17.30;10.53;;;;;;;13.60;58.37;101623.75;5030625;28;20711;-66
2022/04/29 05:29:03;;;;;;;19.27;10.13;;;;;;;13.61;58.16;101630.78;5023924;28;20732;-66
2022/04/29 05:31:32;;;;;;;17.37;9.90;;;;;;;13.67;58.51;101632.88;5026160;28;20307;-66
2022/04/29 05:34:00;;;;;;;18.37;9.73;;;;;;;13.68;58.20;101631.03;5029372;28;20211;-66
2022/04/29 05:36:28;;;;;;;16.50;10.37;;;;;;;13.76;58.43;101641.84;5030248;28;20306;-67
2022/04/29 05:44:33;;;;;;;18.27;9.57;;;;;;;13.79;58.63;101637.09;5024493;28;20212;-67
2022/04/29 05:47:03;;;;;;;15.87;9.90;;;;;;;13.84;58.46;101636.66;5026590;28;20776;-65
2022/04/29 05:49:31;;;;;;;17.83;10.00;;;;;;;13.77;58.34;101630.19;5023989;28;20309;-66
2022/04/29 05:52:00;;;;;;;16.67;10.97;;;;;;;13.80;58.73;101630.78;5026243;28;20244;-66
2022/04/29 05:54:28;;;;;;;15.70;10.13;;;;;;;13.81;59.16;101629.75;5025426;28;20295;-66
2022/04/29 05:56:55;;;;;;;17.37;10.10;;;;;;;13.86;59.21;101629.38;5020474;28;20641;-66
2022/04/29 05:59:23;;;;;;;16.63;9.47;;;;;;;13.91;59.08;101621.75;5023703;28;20211;-67
2022/04/29 06:01:51;;;;;;;15.47;9.53;;;;;;;13.92;58.87;101628.78;5024684;28;20600;-67
2022/04/29 06:04:20;;;;;;;17.20;10.60;;;;;;;13.96;59.10;101626.69;5021224;28;20255;-66
2022/04/29 06:06:48;;;;;;;15.83;10.47;;;;;;;14.03;58.63;101625.13;5025341;28;20235;-66
2022/04/29 06:09:16;;;;;;;18.07;10.23;;;;;;;14.01;58.80;101621.75;5027402;28;20220;-67
2022/04/29 06:11:45;;;;;;;14.73;10.67;;;;;;;14.00;59.02;101622.75;5021757;28;20215;-66
2022/04/29 06:14:12;;;;;;;14.77;10.20;;;;;;;14.00;59.23;101622.75;5024501;28;20214;-65
2022/04/29 06:16:40;;;;;;;17.13;10.10;;;;;;;14.01;59.08;101625.25;5025828;28;20200;-66
2022/04/29 06:19:08;;;;;;;17.13;10.63;;;;;;;14.03;58.79;101625.13;5029158;28;20212;-66
2022/04/29 06:21:41;;;;;;;18.63;11.40;;;;;;;14.06;58.97;101616.84;5028204;28;20229;-66
2022/04/29 06:24:09;;;;;;;17.90;11.97;;;;;;;14.09;58.95;101622.72;5026512;28;20203;-66
2022/04/29 06:26:37;;;;;;;17.53;11.03;;;;;;;14.05;59.23;101617.84;5025584;28;20712;-66
2022/04/29 06:29:05;;;;;;;19.30;11.60;;;;;;;14.06;59.29;101619.53;5024016;28;20271;-65
2022/04/29 06:31:32;;;;;;;16.30;10.70;;;;;;;14.12;58.60;101618.94;5028550;28;20449;-66
2022/04/29 06:34:00;;;;;;;20.47;11.07;;;;;;;14.06;59.07;101622.19;5026679;28;20699;-66
2022/04/29 06:36:28;;;;;;;14.23;10.30;;;;;;;14.05;59.19;101629.34;5024740;28;20212;-67
2022/04/29 06:38:57;;;;;;;15.50;10.73;;;;;;;14.10;59.51;101632.41;5020144;28;20200;-66
2022/04/29 06:41:25;;;;;;;17.90;10.00;;;;;;;14.16;59.21;101631.03;5020628;28;20283;-71
2022/04/29 06:43:53;;;;;;;16.03;10.80;;;;;;;14.24;58.91;101633.81;5021407;28;20233;-71
2022/04/29 06:46:24;;;;;;;16.67;12.10;;;;;;;14.29;59.28;101631.53;5025640;28;20799;-67
2022/04/29 06:48:53;;;;;;;17.57;10.93;;;;;;;14.32;59.03;101633.94;5025232;28;20306;-68
2022/04/29 06:51:20;;;;;;;15.67;11.20;;;;;;;14.42;58.96;101633.94;5027257;28;20222;-67
2022/04/29 06:53:48;;;;;;;19.00;11.17;;;;;;;14.50;58.94;101634.91;5026106;28;20269;-67
2022/04/29 06:56:18;;;;;;;21.50;11.27;;;;;;;14.63;58.54;101637.22;5023462;28;20213;-71
2022/04/29 06:58:46;;;;;;;18.47;10.70;;;;;;;14.79;58.84;101639.25;5028790;28;20205;-70
2022/04/29 07:01:18;;;;;;;17.90;10.03;;;;;;;14.89;58.00;101643.59;5024930;28;20304;-71
2022/04/29 07:03:46;;;;;;;14.83;11.20;;;;;;;14.98;58.10;101647.19;5019677;28;20220;-71
2022/04/29 07:06:14;;;;;;;18.43;10.33;;;;;;;15.02;57.52;101637.91;5026801;28;20686;-71
2022/04/29 07:08:42;;;;;;;15.50;11.03;;;;;;;15.06;57.38;101631.25;5027255;28;20216;-71
2022/04/29 07:11:10;;;;;;;16.10;9.90;;;;;;;15.04;57.91;101628.72;5024272;28;20294;-70
2022/04/29 07:13:39;;;;;;;20.20;10.90;;;;;;;15.01;57.84;101629.06;5025598;28;20292;-70
2022/04/29 07:16:07;;;;;;;20.57;10.40;;;;;;;15.00;57.80;101637.22;5025373;28;20224;-70
2022/04/29 07:18:36;;;;;;;14.40;9.90;;;;;;;15.00;58.28;101629.19;5026031;28;20205;-72
2022/04/29 07:21:04;;;;;;;19.40;10.40;;;;;;;15.06;57.91;101628.59;5025467;28;20221;-71
2022/04/29 07:23:31;;;;;;;17.07;11.10;;;;;;;15.13;58.05;101627.00;5026442;28;20205;-71
2022/04/29 07:25:59;;;;;;;17.00;10.87;;;;;;;15.22;57.62;101633.28;5025379;28;20215;-72
2022/04/29 07:28:27;;;;;;;19.23;11.30;;;;;;;15.22;57.92;101628.78;5022973;28;20331;-71
2022/04/29 07:30:57;;;;;;;17.30;11.27;;;;;;;15.25;57.47;101620.47;5024848;28;20304;-70
2022/04/29 07:33:25;;;;;;;15.27;11.03;;;;;;;15.33;57.61;101627.72;5028551;28;20268;-69
2022/04/29 07:41:47;;;;;;;24.13;13.90;;;;;;;15.37;58.22;101629.97;4945628;28;20203;-71
2022/04/29 07:44:16;;;;;;;15.47;10.93;;;;;;;15.46;57.42;101624.69;5000273;28;20214;-70
2022/04/29 07:46:47;;;;;;;15.27;11.03;;;;;;;15.52;57.32;101629.41;5028660;28;20213;-70
2022/04/29 07:49:15;;;;;;;21.90;11.00;;;;;;;15.55;57.58;101621.13;5024035;28;20216;-70
2022/04/29 07:51:43;;;;;;;20.33;11.57;;;;;;;15.54;57.39;101620.31;5030328;28;20636;-68
2022/04/29 07:54:11;;;;;;;19.10;11.13;;;;;;;15.59;56.95;101618.00;5033750;28;20200;-70
2022/04/29 07:56:39;;;;;;;15.43;11.90;;;;;;;15.61;57.42;101620.53;5022653;28;20295;-70
2022/04/29 07:59:07;;;;;;;20.77;10.97;;;;;;;15.63;57.22;101623.88;5030871;28;20303;-70
2022/04/29 08:01:38;;;;;;;17.27;12.13;;;;;;;15.64;57.35;101620.22;5023905;28;20628;-69
2022/04/29 08:04:09;;;;;;;15.27;11.20;;;;;;;15.65;57.38;101621.91;5022153;28;20232;-71
2022/04/29 08:06:43;;;;;;;19.90;11.03;;;;;;;15.65;57.67;101619.25;5023881;28;20525;-67
2022/04/29 08:09:30;;;;;;;18.37;10.80;;;;;;;15.66;56.73;101627.06;5024715;28;20204;-71
2022/04/29 08:12:05;;;;;;;15.30;10.47;;;;;;;15.67;56.49;101625.25;5025247;28;20213;-71
2022/04/29 08:14:35;;;;;;;13.93;10.17;;;;;;;15.69;56.79;101624.09;5025781;28;20209;-71
2022/04/29 08:17:19;;;;;;;16.80;11.33;;;;;;;15.74;56.45;101624.47;5027698;28;20204;-70
2022/04/29 08:19:49;;;;;;;18.37;10.60;;;;;;;15.81;56.04;101627.41;5027534;28;20210;-70
2022/04/29 08:22:17;;;;;;;18.07;10.83;;;;;;;15.85;55.82;101623.41;5027943;28;20669;-73
2022/04/29 08:24:45;;;;;;;18.50;10.77;;;;;;;15.90;55.54;101631.81;5027816;28;20235;-72
2022/04/29 08:27:13;;;;;;;16.63;11.40;;;;;;;15.97;55.68;101622.19;5026705;28;20661;-72
2022/04/29 08:29:46;;;;;;;15.73;10.83;;;;;;;16.12;55.59;101625.13;5030733;28;20247;-72
2022/04/29 08:32:14;;;;;;;14.27;10.50;;;;;;;16.34;55.44;101621.09;5030556;28;20208;-72
2022/04/29 08:34:43;;;;;;;15.23;10.07;;;;;;;16.52;54.74;101624.56;5029866;28;20243;-72
2022/04/29 08:37:12;;;;;;;15.47;9.97;;;;;;;16.70;54.48;101620.00;5028067;28;20204;-71
2022/04/29 08:39:46;;;;;;;19.17;10.60;;;;;;;16.83;53.48;101622.22;5027780;28;20645;-71
2022/04/29 08:42:15;;;;;;;12.63;9.67;;;;;;;16.95;52.77;101618.25;5029176;28;20296;-71
2022/04/29 08:44:43;;;;;;;13.23;9.70;;;;;;;17.08;52.74;101612.44;5027638;28;20303;-72
2022/04/29 08:47:13;;;;;;;14.93;10.03;;;;;;;17.22;51.94;101622.53;5025105;28;20331;-69
2022/04/29 08:49:41;;;;;;;16.27;9.83;;;;;;;17.26;52.48;101614.00;5028346;28;20642;-71
2022/04/29 08:52:11;;;;;;;11.60;8.20;;;;;;;17.31;51.28;101608.16;5033977;28;20212;-71
2022/04/29 09:00:15;;;;;;;12.53;7.73;;;;;;;17.55;49.17;101600.13;5024735;28;20304;-71
2022/04/29 09:02:49;;;;;;;15.57;8.47;;;;;;;17.57;48.77;101598.13;5023902;28;20304;-71
2022/04/29 09:05:17;;;;;;;12.10;7.70;;;;;;;17.63;49.79;101596.66;5023971;28;20208;-69
2022/04/29 09:07:56;;;;;;;10.67;7.27;;;;;;;17.67;50.37;101596.16;5021562;28;22232;-70
2022/04/29 09:10:27;;;;;;;12.40;8.03;;;;;;;17.72;49.55;101600.19;5025141;28;20210;-71
2022/04/29 09:12:56;;;;;;;11.37;7.27;;;;;;;17.88;49.39;101597.50;5026432;28;20670;-73
2022/04/29 09:15:24;;;;;;;11.80;7.70;;;;;;;17.82;50.49;101595.50;5027096;28;20215;-72
2022/04/29 09:17:53;;;;;;;14.47;8.90;;;;;;;17.88;49.39;101597.50;5028532;28;20635;-71
2022/04/29 09:20:22;;;;;;;15.27;8.60;;;;;;;17.91;50.09;101586.44;5022603;28;20204;-69
2022/04/29 09:22:52;;;;;;;12.73;8.03;;;;;;;17.93;49.71;101587.09;5026107;28;20636;-66
2022/04/29 09:25:20;;;;;;;12.90;8.43;;;;;;;17.91;49.02;101583.75;5029178;28;20217;-68
2022/04/29 09:27:58;;;;;;;15.33;8.10;;;;;;;17.88;49.36;101584.06;5022115;28;20235;-67
2022/04/29 09:30:34;;;;;;;12.80;7.40;;;;;;;17.89;48.95;101577.69;5020189;28;20236;-67
2022/04/29 09:33:02;;;;;;;18.60;8.63;;;;;;;17.92;49.84;101580.06;5021177;28;20690;-68
2022/04/29 09:35:40;;;;;;;15.20;8.80;;;;;;;18.00;48.69;101577.38;5022443;28;20291;-70
2022/04/29 09:40:54;;;;;;;15.27;8.20;;;;;;;18.03;49.57;101577.00;5024494;28;20472;-68
2022/04/29 09:43:34;;;;;;;20.27;9.70;;;;;;;18.03;49.35;101568.94;5026063;28;20209;-67
2022/04/29 09:46:13;;;;;;;22.23;10.07;;;;;;;18.04;49.81;101567.94;5022898;28;20201;-68
2022/04/29 09:49:04;;;;;;;13.47;9.00;;;;;;;18.08;51.37;101563.09;5028605;28;20228;-68
2022/04/29 09:51:46;;;;;;;13.93;9.30;;;;;;;18.10;49.80;101561.91;5027747;28;20232;-67
2022/04/29 09:54:17;;;;;;;17.10;9.17;;;;;;;18.09;49.52;101568.28;5028945;28;20702;-68
2022/04/29 09:56:46;;;;;;;13.07;8.90;;;;;;;18.06;49.58;101560.56;5028985;28;20203;-69
2022/04/29 09:59:15;;;;;;;16.17;9.40;;;;;;;18.04;50.16;101567.94;5025766;28;20197;-67
2022/04/29 10:01:49;;;;;;;18.50;10.67;;;;;;;18.02;49.86;101561.94;5024538;28;20344;-69
2022/04/29 10:04:17;;;;;;;18.37;10.13;;;;;;;18.01;49.70;101557.56;5025257;28;20217;-67
2022/04/29 10:06:49;;;;;;;15.67;8.57;;;;;;;18.03;50.12;101553.69;5024348;28;20595;-68
2022/04/29 10:09:18;;;;;;;20.80;8.53;;;;;;;18.09;51.09;101554.03;5027612;28;20697;-69
2022/04/29 10:11:46;;;;;;;13.50;9.07;;;;;;;18.12;51.17;101557.19;5025433;28;20213;-74
2022/04/29 10:14:18;;;;;;;18.83;9.57;;;;;;;18.09;51.93;101548.66;5025994;28;20222;-73
2022/04/29 10:21:15;;;;;;;11.97;7.53;;;;;;;18.11;51.01;101557.41;5026421;28;20955;-74
2022/04/29 10:22:27;;;;;;;11.00;6.83;;;;;;;18.19;49.36;101546.63;5028677;28;20292;-73
2022/04/29 10:24:56;;;;;;;11.97;7.63;;;;;;;18.26;49.01;101550.31;5029634;28;20602;-73
2022/04/29 10:27:24;;;;;;;12.07;7.77;;;;;;;18.28;48.13;101554.50;5029943;28;20212;-73
2022/04/29 10:29:54;;;;;;;10.43;7.10;;;;;;;18.30;49.38;101547.09;5030589;28;20239;-74
2022/04/29 10:32:21;;;;;;;13.07;7.83;;;;;;;18.37;47.97;101552.63;5028127;28;20726;-73
2022/04/29 10:34:54;;;;;;;9.60;6.90;;;;;;;18.40;47.87;101544.19;5029465;28;20204;-73
2022/04/29 10:37:33;;;;;;;11.27;7.00;;;;;;;18.49;47.36;101545.00;5026374;28;20254;-73
2022/04/29 10:40:09;;;;;;;12.60;8.03;;;;;;;18.57;45.48;101539.63;5030150;28;20629;-74
2022/04/29 10:43:09;;;;;;;10.90;7.67;;;;;;;18.77;45.48;101546.28;5030474;28;20290;-74
2022/04/29 10:46:16;;;;;;;10.40;6.90;;;;;;;19.14;44.79;101541.03;5022838;28;20240;-73
2022/04/29 10:48:44;;;;;;;10.13;6.90;;;;;;;19.49;44.89;101528.03;5026294;28;20252;-76
2022/04/29 10:51:16;;;;;;;9.93;7.03;;;;;;;19.85;43.51;101529.03;5028479;28;20213;-74
2022/04/29 10:53:45;;;;;;;14.57;7.80;;;;;;;19.99;42.20;101529.22;5029586;28;20200;-74
2022/04/29 10:56:50;;;;;;;16.23;7.57;;;;;;;20.31;39.91;101522.66;5028865;28;20205;-74
2022/04/29 10:59:22;;;;;;;11.47;7.67;;;;;;;20.62;38.67;101513.38;5024732;28;20201;-72
2022/04/29 11:02:06;;;;;;;11.30;7.27;;;;;;;20.84;38.78;101514.25;5029628;28;20651;-71
2022/04/29 11:04:45;;;;;;;11.47;7.50;;;;;;;20.98;37.31;101501.75;5027686;28;20493;-72
2022/04/29 11:07:36;;;;;;;11.13;7.63;;;;;;;21.02;36.96;101505.75;5033818;28;20246;-72
2022/04/29 11:10:05;;;;;;;12.80;7.23;;;;;;;20.97;38.08;101503.59;5035988;28;20255;-71
2022/04/29 11:12:34;;;;;;;9.10;6.87;;;;;;;20.92;38.93;101489.88;5031080;28;20725;-71
2022/04/29 11:15:10;;;;;;;11.73;7.50;;;;;;;20.91;39.20;101493.59;5031864;28;20232;-71
2022/04/29 11:17:40;;;;;;;10.20;6.80;;;;;;;20.82;39.20;101493.91;5028746;28;20213;-72
2022/04/29 11:20:20;;;;;;;11.27;6.63;;;;;;;20.61;38.00;101486.59;5030223;28;20268;-71
2022/04/29 11:25:57;;;;;;;8.70;5.87;;;;;;;20.16;38.90;101491.16;5031586;28;20288;-71
2022/04/29 11:28:26;;;;;;;8.93;5.23;;;;;;;20.12;38.10;101481.81;5032281;28;20721;-72
2022/04/29 11:31:01;;;;;;;9.63;4.97;;;;;;;20.06;36.31;101481.69;5031638;28;20215;-72
2022/04/29 11:33:30;;;;;;;6.07;4.80;;;;;;;19.93;36.74;101485.06;5031546;28;20236;-72
2022/04/29 11:36:04;;;;;;;8.97;4.90;;;;;;;19.80;35.88;101477.59;5026648;28;20312;-72
2022/04/29 11:38:39;;;;;;;7.33;5.53;;;;;;;19.74;35.93;101472.13;5026327;28;20202;-71
2022/04/29 11:41:07;;;;;;;9.47;5.67;;;;;;;19.65;36.28;101479.44;5032157;28;20200;-72
2022/04/29 11:43:35;;;;;;;10.00;5.47;;;;;;;19.62;37.95;101473.59;5031526;28;20236;-72
2022/04/29 11:46:06;;;;;;;10.60;5.57;;;;;;;19.57;37.37;101460.69;5033547;28;20737;-71
2022/04/29 11:48:35;;;;;;;11.00;5.30;;;;;;;19.54;37.60;101461.88;5029879;28;20237;-72
2022/04/29 11:51:05;;;;;;;10.50;6.20;;;;;;;19.59;38.45;101458.66;5030491;28;20231;-72
2022/04/29 11:53:34;;;;;;;13.70;5.90;;;;;;;19.66;38.82;101453.38;5036603;28;20344;-71
2022/04/29 11:56:01;;;;;;;8.90;6.07;;;;;;;19.74;38.37;101451.44;5026595;28;20217;-71